sensor_id;sensor_type;location;lat;lon;timestamp;P1;durP1;ratioP1;P2;durP2;ratioP2
2177;SDS011;1095;50.992;6.798;2023-08-06T04:18:52;9.70;;;5.55;;
2177;SDS011;1095;50.992;6.798;2023-08-06T04:21:20;10.55;;;6.15;;
2177;SDS011;1095;50.992;6.798;2023-08-06T04:23:47;8.77;;;5.95;;
2177;SDS011;1095;50.992;6.798;2023-08-06T04:26:14;12.60;;;6.18;;
2177;SDS011;1095;50.992;6.798;2023-08-06T04:28:40;9.52;;;6.90;;
2177;SDS011;1095;50.992;6.798;2023-08-06T04:31:08;10.38;;;6.97;;
2177;SDS011;1095;50.992;6.798;2023-08-06T04:33:35;11.73;;;7.03;;
2177;SDS011;1095;50.992;6.798;2023-08-06T04:36:02;12.60;;;7.40;;
2177;SDS011;1095;50.992;6.798;2023-08-06T04:38:29;9.25;;;7.32;;
2177;SDS011;1095;50.992;6.798;2023-08-06T04:40:55;11.38;;;7.70;;
2177;SDS011;1095;50.992;6.798;2023-08-06T04:43:24;13.32;;;8.27;;
2177;SDS011;1095;50.992;6.798;2023-08-06T04:45:51;11.43;;;8.38;;
2177;SDS011;1095;50.992;6.798;2023-08-06T04:48:21;10.85;;;8.48;;
2177;SDS011;1095;50.992;6.798;2023-08-06T04:50:48;12.40;;;8.30;;
2177;SDS011;1095;50.992;6.798;2023-08-06T04:53:16;9.55;;;7.88;;
2177;SDS011;1095;50.992;6.798;2023-08-06T04:55:43;10.93;;;7.35;;
2177;SDS011;1095;50.992;6.798;2023-08-06T04:58:10;8.82;;;6.80;;
2177;SDS011;1095;50.992;6.798;2023-08-06T05:00:37;11.48;;;7.10;;
2177;SDS011;1095;50.992;6.798;2023-08-06T05:03:04;13.70;;;7.35;;
2177;SDS011;1095;50.992;6.798;2023-08-06T05:05:33;10.38;;;7.75;;
2177;SDS011;1095;50.992;6.798;2023-08-06T05:07:59;9.77;;;6.80;;
2177;SDS011;1095;50.992;6.798;2023-08-06T05:10:26;11.32;;;6.80;;
2177;SDS011;1095;50.992;6.798;2023-08-06T05:12:53;13.05;;;6.93;;
2177;SDS011;1095;50.992;6.798;2023-08-06T05:15:20;12.45;;;7.75;;
2177;SDS011;1095;50.992;6.798;2023-08-06T05:17:47;8.82;;;6.72;;
2177;SDS011;1095;50.992;6.798;2023-08-06T05:20:13;9.15;;;7.20;;
2177;SDS011;1095;50.992;6.798;2023-08-06T05:22:42;10.50;;;6.78;;
2177;SDS011;1095;50.992;6.798;2023-08-06T05:25:11;9.32;;;6.63;;
2177;SDS011;1095;50.992;6.798;2023-08-06T05:27:39;10.30;;;6.90;;
2177;SDS011;1095;50.992;6.798;2023-08-06T05:30:06;14.43;;;6.45;;
2177;SDS011;1095;50.992;6.798;2023-08-06T05:32:33;9.15;;;6.55;;
2177;SDS011;1095;50.992;6.798;2023-08-06T05:34:59;12.77;;;6.38;;
2177;SDS011;1095;50.992;6.798;2023-08-06T05:37:26;9.73;;;6.32;;
2177;SDS011;1095;50.992;6.798;2023-08-06T05:39:54;12.82;;;6.43;;
2177;SDS011;1095;50.992;6.798;2023-08-06T05:42:21;8.40;;;5.90;;
2177;SDS011;1095;50.992;6.798;2023-08-06T05:44:47;10.43;;;6.50;;
2177;SDS011;1095;50.992;6.798;2023-08-06T05:47:14;10.95;;;6.32;;
2177;SDS011;1095;50.992;6.798;2023-08-06T05:49:40;9.43;;;6.40;;
2177;SDS011;1095;50.992;6.798;2023-08-06T05:52:07;9.02;;;6.75;;
2177;SDS011;1095;50.992;6.798;2023-08-06T05:54:34;9.50;;;6.25;;
2177;SDS011;1095;50.992;6.798;2023-08-06T05:57:34;8.65;;;6.32;;
2177;SDS011;1095;50.992;6.798;2023-08-06T06:00:01;8.32;;;6.32;;
2177;SDS011;1095;50.992;6.798;2023-08-06T06:02:28;8.23;;;6.03;;
2177;SDS011;1095;50.992;6.798;2023-08-06T06:04:54;8.93;;;6.10;;
2177;SDS011;1095;50.992;6.798;2023-08-06T06:07:21;9.35;;;5.95;;
2177;SDS011;1095;50.992;6.798;2023-08-06T06:09:48;8.07;;;5.53;;
2177;SDS011;1095;50.992;6.798;2023-08-06T06:12:17;9.18;;;5.25;;
2177;SDS011;1095;50.992;6.798;2023-08-06T06:14:45;9.73;;;6.28;;
2177;SDS011;1095;50.992;6.798;2023-08-06T06:17:14;8.40;;;5.30;;
2177;SDS011;1095;50.992;6.798;2023-08-06T06:19:41;7.78;;;5.40;;
2177;SDS011;1095;50.992;6.798;2023-08-06T06:22:08;11.85;;;5.72;;
2177;SDS011;1095;50.992;6.798;2023-08-06T06:24:35;7.30;;;5.40;;
2177;SDS011;1095;50.992;6.798;2023-08-06T06:27:02;7.22;;;5.25;;
2177;SDS011;1095;50.992;6.798;2023-08-06T06:29:29;8.05;;;5.28;;
2177;SDS011;1095;50.992;6.798;2023-08-06T06:31:57;7.72;;;5.47;;
2177;SDS011;1095;50.992;6.798;2023-08-06T06:34:24;7.60;;;5.45;;
2177;SDS011;1095;50.992;6.798;2023-08-06T06:36:50;8.15;;;5.65;;
2177;SDS011;1095;50.992;6.798;2023-08-06T06:39:17;8.38;;;5.07;;
2177;SDS011;1095;50.992;6.798;2023-08-06T06:41:44;8.20;;;5.43;;
2177;SDS011;1095;50.992;6.798;2023-08-06T06:44:10;7.13;;;5.57;;
2177;SDS011;1095;50.992;6.798;2023-08-06T06:46:37;7.30;;;5.20;;
2177;SDS011;1095;50.992;6.798;2023-08-06T06:49:05;9.05;;;5.43;;
2177;SDS011;1095;50.992;6.798;2023-08-06T06:51:32;8.32;;;5.38;;
2177;SDS011;1095;50.992;6.798;2023-08-06T06:53:59;7.78;;;4.93;;
2177;SDS011;1095;50.992;6.798;2023-08-06T06:56:25;7.10;;;4.40;;
2177;SDS011;1095;50.992;6.798;2023-08-06T06:58:52;5.63;;;4.50;;
2177;SDS011;1095;50.992;6.798;2023-08-06T07:01:19;6.65;;;3.80;;
2177;SDS011;1095;50.992;6.798;2023-08-06T07:03:49;3.85;;;3.38;;
2177;SDS011;1095;50.992;6.798;2023-08-06T07:06:17;3.92;;;3.40;;
2177;SDS011;1095;50.992;6.798;2023-08-06T07:08:44;2.97;;;2.78;;
2177;SDS011;1095;50.992;6.798;2023-08-06T07:11:10;3.33;;;2.85;;
2177;SDS011;1095;50.992;6.798;2023-08-06T07:13:37;2.97;;;2.67;;
2177;SDS011;1095;50.992;6.798;2023-08-06T07:16:04;3.80;;;2.90;;
2177;SDS011;1095;50.992;6.798;2023-08-06T07:18:33;3.50;;;2.53;;
2177;SDS011;1095;50.992;6.798;2023-08-06T07:21:00;2.40;;;2.15;;
2177;SDS011;1095;50.992;6.798;2023-08-06T07:23:28;2.53;;;2.33;;
2177;SDS011;1095;50.992;6.798;2023-08-06T07:25:55;6.35;;;2.53;;
2177;SDS011;1095;50.992;6.798;2023-08-06T07:28:22;3.63;;;2.72;;
2177;SDS011;1095;50.992;6.798;2023-08-06T07:30:48;6.03;;;3.17;;
2177;SDS011;1095;50.992;6.798;2023-08-06T07:33:15;3.67;;;2.45;;
2177;SDS011;1095;50.992;6.798;2023-08-06T07:35:42;3.47;;;2.40;;
2177;SDS011;1095;50.992;6.798;2023-08-06T07:38:09;3.58;;;2.47;;
2177;SDS011;1095;50.992;6.798;2023-08-06T07:40:38;2.65;;;2.30;;
2177;SDS011;1095;50.992;6.798;2023-08-06T07:43:05;2.67;;;2.08;;
2177;SDS011;1095;50.992;6.798;2023-08-06T07:45:33;1.27;;;1.17;;
2177;SDS011;1095;50.992;6.798;2023-08-06T07:48:01;1.60;;;1.50;;
2177;SDS011;1095;50.992;6.798;2023-08-06T07:50:28;2.10;;;1.90;;
2177;SDS011;1095;50.992;6.798;2023-08-06T07:52:55;1.75;;;1.65;;
2177;SDS011;1095;50.992;6.798;2023-08-06T07:55:22;1.95;;;1.85;;
2177;SDS011;1095;50.992;6.798;2023-08-06T07:57:50;1.90;;;1.80;;
2177;SDS011;1095;50.992;6.798;2023-08-06T08:00:17;2.38;;;2.17;;
2177;SDS011;1095;50.992;6.798;2023-08-06T08:02:50;2.53;;;2.28;;
2177;SDS011;1095;50.992;6.798;2023-08-06T08:05:17;2.40;;;2.20;;
2177;SDS011;1095;50.992;6.798;2023-08-06T08:07:44;2.13;;;1.90;;
2177;SDS011;1095;50.992;6.798;2023-08-06T08:10:10;2.67;;;2.47;;
2177;SDS011;1095;50.992;6.798;2023-08-06T08:12:37;2.58;;;2.30;;
2177;SDS011;1095;50.992;6.798;2023-08-06T08:15:06;2.35;;;2.15;;
2177;SDS011;1095;50.992;6.798;2023-08-06T08:17:35;2.00;;;1.85;;
2177;SDS011;1095;50.992;6.798;2023-08-06T08:20:03;1.83;;;1.70;;
2177;SDS011;1095;50.992;6.798;2023-08-06T08:22:30;2.40;;;2.20;;
2177;SDS011;1095;50.992;6.798;2023-08-06T08:24:56;2.53;;;2.33;;
2177;SDS011;1095;50.992;6.798;2023-08-06T08:27:23;2.35;;;1.73;;
2177;SDS011;1095;50.992;6.798;2023-08-06T08:29:50;1.60;;;1.50;;
2177;SDS011;1095;50.992;6.798;2023-08-06T08:32:18;1.70;;;1.60;;
2177;SDS011;1095;50.992;6.798;2023-08-06T08:34:44;2.58;;;1.80;;
2177;SDS011;1095;50.992;6.798;2023-08-06T08:37:11;1.95;;;1.80;;
2177;SDS011;1095;50.992;6.798;2023-08-06T08:39:38;2.50;;;2.30;;
2177;SDS011;1095;50.992;6.798;2023-08-06T08:42:05;1.92;;;1.83;;
2177;SDS011;1095;50.992;6.798;2023-08-06T08:44:32;3.53;;;2.88;;
2177;SDS011;1095;50.992;6.798;2023-08-06T08:47:01;3.50;;;2.92;;
2177;SDS011;1095;50.992;6.798;2023-08-06T08:49:30;2.88;;;2.65;;
2177;SDS011;1095;50.992;6.798;2023-08-06T08:51:57;4.28;;;3.20;;
2177;SDS011;1095;50.992;6.798;2023-08-06T08:54:25;5.75;;;3.28;;
2177;SDS011;1095;50.992;6.798;2023-08-06T08:56:53;4.28;;;3.50;;
2177;SDS011;1095;50.992;6.798;2023-08-06T08:59:20;3.95;;;3.55;;
2177;SDS011;1095;50.992;6.798;2023-08-06T09:01:46;4.75;;;3.90;;
2177;SDS011;1095;50.992;6.798;2023-08-06T09:04:16;4.20;;;3.80;;
2177;SDS011;1095;50.992;6.798;2023-08-06T09:06:45;5.70;;;4.97;;
2177;SDS011;1095;50.992;6.798;2023-08-06T09:09:13;8.68;;;6.55;;
2177;SDS011;1095;50.992;6.798;2023-08-06T09:11:46;8.20;;;7.40;;
2177;SDS011;1095;50.992;6.798;2023-08-06T09:14:14;8.52;;;7.57;;
2177;SDS011;1095;50.992;6.798;2023-08-06T09:16:42;8.98;;;8.07;;
2177;SDS011;1095;50.992;6.798;2023-08-06T09:19:09;9.10;;;7.53;;
2177;SDS011;1095;50.992;6.798;2023-08-06T09:21:37;10.00;;;7.22;;
2177;SDS011;1095;50.992;6.798;2023-08-06T09:24:08;7.10;;;6.40;;
2177;SDS011;1095;50.992;6.798;2023-08-06T09:26:36;6.65;;;5.97;;
2177;SDS011;1095;50.992;6.798;2023-08-06T09:29:04;5.90;;;5.30;;
2177;SDS011;1095;50.992;6.798;2023-08-06T09:31:36;5.90;;;5.10;;
2177;SDS011;1095;50.992;6.798;2023-08-06T09:34:10;5.63;;;5.00;;
2177;SDS011;1095;50.992;6.798;2023-08-06T09:36:39;4.22;;;3.80;;
2177;SDS011;1095;50.992;6.798;2023-08-06T09:39:13;7.95;;;3.50;;
2177;SDS011;1095;50.992;6.798;2023-08-06T09:44:14;7.72;;;4.13;;
2177;SDS011;1095;50.992;6.798;2023-08-06T09:46:41;5.15;;;3.95;;
2177;SDS011;1095;50.992;6.798;2023-08-06T09:49:08;3.95;;;3.42;;
2177;SDS011;1095;50.992;6.798;2023-08-06T09:51:35;4.50;;;3.10;;
2177;SDS011;1095;50.992;6.798;2023-08-06T09:54:04;2.45;;;2.20;;
2177;SDS011;1095;50.992;6.798;2023-08-06T09:56:34;3.10;;;2.05;;
2177;SDS011;1095;50.992;6.798;2023-08-06T09:59:03;4.70;;;2.72;;
2177;SDS011;1095;50.992;6.798;2023-08-06T10:01:31;2.30;;;2.10;;
2177;SDS011;1095;50.992;6.798;2023-08-06T10:03:59;2.55;;;1.60;;
2177;SDS011;1095;50.992;6.798;2023-08-06T10:06:26;2.00;;;1.50;;
2177;SDS011;1095;50.992;6.798;2023-08-06T10:08:55;1.05;;;0.98;;
2177;SDS011;1095;50.992;6.798;2023-08-06T10:11:22;2.13;;;1.50;;
2177;SDS011;1095;50.992;6.798;2023-08-06T10:13:53;2.03;;;1.65;;
2177;SDS011;1095;50.992;6.798;2023-08-06T10:16:24;2.00;;;1.80;;
2177;SDS011;1095;50.992;6.798;2023-08-06T10:18:51;2.90;;;2.17;;
2177;SDS011;1095;50.992;6.798;2023-08-06T10:21:20;3.60;;;2.85;;
2177;SDS011;1095;50.992;6.798;2023-08-06T10:23:49;2.35;;;2.10;;
2177;SDS011;1095;50.992;6.798;2023-08-06T10:26:20;2.55;;;2.03;;
2177;SDS011;1095;50.992;6.798;2023-08-06T10:28:46;2.00;;;1.80;;
2177;SDS011;1095;50.992;6.798;2023-08-06T10:31:16;3.05;;;2.67;;
2177;SDS011;1095;50.992;6.798;2023-08-06T10:33:43;4.10;;;2.80;;
2177;SDS011;1095;50.992;6.798;2023-08-06T10:36:11;5.50;;;3.20;;
2177;SDS011;1095;50.992;6.798;2023-08-06T10:38:45;3.55;;;2.85;;
2177;SDS011;1095;50.992;6.798;2023-08-06T10:41:17;4.90;;;2.97;;
2177;SDS011;1095;50.992;6.798;2023-08-06T10:43:48;4.07;;;3.50;;
2177;SDS011;1095;50.992;6.798;2023-08-06T10:46:27;5.18;;;3.90;;
2177;SDS011;1095;50.992;6.798;2023-08-06T10:48:54;7.15;;;4.45;;
2177;SDS011;1095;50.992;6.798;2023-08-06T10:51:21;5.07;;;4.07;;
2177;SDS011;1095;50.992;6.798;2023-08-06T10:53:48;5.53;;;4.13;;
2177;SDS011;1095;50.992;6.798;2023-08-06T10:56:16;7.03;;;4.45;;
2177;SDS011;1095;50.992;6.798;2023-08-06T10:58:44;5.10;;;3.92;;
2177;SDS011;1095;50.992;6.798;2023-08-06T11:01:14;5.95;;;4.90;;
2177;SDS011;1095;50.992;6.798;2023-08-06T11:03:42;6.55;;;4.53;;
2177;SDS011;1095;50.992;6.798;2023-08-06T11:06:18;6.88;;;4.18;;
2177;SDS011;1095;50.992;6.798;2023-08-06T11:09:03;7.85;;;4.40;;
2177;SDS011;1095;50.992;6.798;2023-08-06T11:11:34;9.25;;;4.30;;
2177;SDS011;1095;50.992;6.798;2023-08-06T11:14:01;8.35;;;4.47;;
2177;SDS011;1095;50.992;6.798;2023-08-06T11:16:27;7.03;;;4.65;;
2177;SDS011;1095;50.992;6.798;2023-08-06T11:19:01;10.43;;;4.88;;
2177;SDS011;1095;50.992;6.798;2023-08-06T11:21:39;6.90;;;5.07;;
2177;SDS011;1095;50.992;6.798;2023-08-06T11:24:14;8.82;;;5.10;;
2177;SDS011;1095;50.992;6.798;2023-08-06T11:26:44;7.05;;;5.47;;
2177;SDS011;1095;50.992;6.798;2023-08-06T11:29:11;8.57;;;5.28;;
2177;SDS011;1095;50.992;6.798;2023-08-06T11:31:42;7.68;;;5.15;;
2177;SDS011;1095;50.992;6.798;2023-08-06T11:34:34;8.52;;;4.78;;
2177;SDS011;1095;50.992;6.798;2023-08-06T11:37:20;10.82;;;5.70;;
2177;SDS011;1095;50.992;6.798;2023-08-06T11:39:53;11.77;;;5.55;;
2177;SDS011;1095;50.992;6.798;2023-08-06T11:42:31;13.15;;;5.78;;
2177;SDS011;1095;50.992;6.798;2023-08-06T11:45:01;8.18;;;4.72;;
2177;SDS011;1095;50.992;6.798;2023-08-06T11:47:49;8.05;;;4.40;;
2177;SDS011;1095;50.992;6.798;2023-08-06T11:56:09;6.68;;;3.78;;
2177;SDS011;1095;50.992;6.798;2023-08-06T11:58:47;6.50;;;3.92;;
2177;SDS011;1095;50.992;6.798;2023-08-06T12:01:25;7.45;;;4.30;;
2177;SDS011;1095;50.992;6.798;2023-08-06T12:04:02;5.63;;;3.47;;
2177;SDS011;1095;50.992;6.798;2023-08-06T12:06:48;7.93;;;3.50;;
2177;SDS011;1095;50.992;6.798;2023-08-06T12:09:16;7.60;;;3.90;;
2177;SDS011;1095;50.992;6.798;2023-08-06T12:11:42;5.50;;;3.25;;
2177;SDS011;1095;50.992;6.798;2023-08-06T12:14:09;6.30;;;3.80;;
2177;SDS011;1095;50.992;6.798;2023-08-06T12:16:36;6.90;;;4.15;;
2177;SDS011;1095;50.992;6.798;2023-08-06T12:19:03;9.40;;;4.35;;
2177;SDS011;1095;50.992;6.798;2023-08-06T12:21:32;7.20;;;4.10;;
2177;SDS011;1095;50.992;6.798;2023-08-06T12:23:58;6.22;;;3.60;;
2177;SDS011;1095;50.992;6.798;2023-08-06T12:26:26;7.68;;;4.07;;
2177;SDS011;1095;50.992;6.798;2023-08-06T12:28:53;7.38;;;4.10;;
2177;SDS011;1095;50.992;6.798;2023-08-06T12:31:22;12.15;;;4.47;;
2177;SDS011;1095;50.992;6.798;2023-08-06T12:33:49;9.50;;;3.72;;
2177;SDS011;1095;50.992;6.798;2023-08-06T12:36:17;5.63;;;3.60;;
2177;SDS011;1095;50.992;6.798;2023-08-06T12:38:44;7.78;;;3.78;;
2177;SDS011;1095;50.992;6.798;2023-08-06T12:41:10;7.15;;;3.72;;
2177;SDS011;1095;50.992;6.798;2023-08-06T12:43:47;5.72;;;3.42;;
2177;SDS011;1095;50.992;6.798;2023-08-06T12:46:19;6.20;;;3.70;;
2177;SDS011;1095;50.992;6.798;2023-08-06T12:53:08;7.00;;;3.95;;
2177;SDS011;1095;50.992;6.798;2023-08-06T12:57:23;8.32;;;4.30;;
2177;SDS011;1095;50.992;6.798;2023-08-06T12:59:29;5.72;;;3.45;;
2177;SDS011;1095;50.992;6.798;2023-08-06T13:02:07;4.22;;;3.38;;
2177;SDS011;1095;50.992;6.798;2023-08-06T13:04:41;6.65;;;3.88;;
2177;SDS011;1095;50.992;6.798;2023-08-06T13:07:20;6.03;;;4.10;;
2177;SDS011;1095;50.992;6.798;2023-08-06T13:09:53;6.20;;;4.22;;
2177;SDS011;1095;50.992;6.798;2023-08-06T13:12:23;6.57;;;3.80;;
2177;SDS011;1095;50.992;6.798;2023-08-06T13:15:02;8.38;;;3.78;;
2177;SDS011;1095;50.992;6.798;2023-08-06T13:20:01;6.38;;;4.13;;
2177;SDS011;1095;50.992;6.798;2023-08-06T13:22:36;7.75;;;4.10;;
2177;SDS011;1095;50.992;6.798;2023-08-06T13:25:21;9.27;;;4.40;;
2177;SDS011;1095;50.992;6.798;2023-08-06T13:28:04;6.38;;;4.70;;
2177;SDS011;1095;50.992;6.798;2023-08-06T13:30:50;9.65;;;5.20;;
2177;SDS011;1095;50.992;6.798;2023-08-06T13:33:45;6.03;;;5.10;;
2177;SDS011;1095;50.992;6.798;2023-08-06T13:39:08;6.55;;;5.47;;
2177;SDS011;1095;50.992;6.798;2023-08-06T13:42:05;6.60;;;4.80;;
2177;SDS011;1095;50.992;6.798;2023-08-06T13:44:35;11.50;;;6.30;;
2177;SDS011;1095;50.992;6.798;2023-08-06T13:47:32;8.48;;;4.78;;
2177;SDS011;1095;50.992;6.798;2023-08-06T13:55:24;8.18;;;4.72;;
2177;SDS011;1095;50.992;6.798;2023-08-06T13:56:50;7.47;;;5.22;;
2177;SDS011;1095;50.992;6.798;2023-08-06T13:59:31;9.90;;;4.93;;
2177;SDS011;1095;50.992;6.798;2023-08-06T14:02:17;7.47;;;4.72;;
2177;SDS011;1095;50.992;6.798;2023-08-06T14:05:06;8.25;;;4.50;;
2177;SDS011;1095;50.992;6.798;2023-08-06T14:07:51;7.22;;;4.40;;
2177;SDS011;1095;50.992;6.798;2023-08-06T14:10:22;6.20;;;3.50;;
2177;SDS011;1095;50.992;6.798;2023-08-06T14:19:06;5.70;;;3.28;;
2177;SDS011;1095;50.992;6.798;2023-08-06T14:24:46;6.95;;;3.78;;
2177;SDS011;1095;50.992;6.798;2023-08-06T14:27:40;8.60;;;3.70;;
2177;SDS011;1095;50.992;6.798;2023-08-06T14:34:18;8.35;;;4.38;;
2177;SDS011;1095;50.992;6.798;2023-08-06T17:01:43;10.50;;;4.68;;
2177;SDS011;1095;50.992;6.798;2023-08-06T17:21:12;6.47;;;4.10;;
2177;SDS011;1095;50.992;6.798;2023-08-06T17:24:05;7.78;;;4.00;;
2177;SDS011;1095;50.992;6.798;2023-08-06T17:26:56;6.55;;;3.72;;
2177;SDS011;1095;50.992;6.798;2023-08-06T17:29:47;6.45;;;3.80;;
2177;SDS011;1095;50.992;6.798;2023-08-06T17:32:21;8.10;;;3.85;;
2177;SDS011;1095;50.992;6.798;2023-08-06T17:38:11;4.90;;;2.70;;
2177;SDS011;1095;50.992;6.798;2023-08-06T17:44:02;3.22;;;2.78;;
2177;SDS011;1095;50.992;6.798;2023-08-06T17:46:46;4.45;;;2.60;;
2177;SDS011;1095;50.992;6.798;2023-08-06T17:49:13;5.03;;;3.10;;
2177;SDS011;1095;50.992;6.798;2023-08-06T17:51:41;6.85;;;3.20;;
2177;SDS011;1095;50.992;6.798;2023-08-06T17:54:07;5.45;;;3.20;;
2177;SDS011;1095;50.992;6.798;2023-08-06T17:56:34;4.40;;;2.97;;
2177;SDS011;1095;50.992;6.798;2023-08-06T17:59:00;4.22;;;3.05;;
2177;SDS011;1095;50.992;6.798;2023-08-06T18:01:27;5.40;;;3.28;;
2177;SDS011;1095;50.992;6.798;2023-08-06T18:03:57;5.32;;;3.10;;
2177;SDS011;1095;50.992;6.798;2023-08-06T18:06:29;4.07;;;3.10;;
2177;SDS011;1095;50.992;6.798;2023-08-06T18:08:59;4.25;;;2.83;;
2177;SDS011;1095;50.992;6.798;2023-08-06T20:16:22;11.30;;;3.80;;
2177;SDS011;1095;50.992;6.798;2023-08-06T20:33:56;13.32;;;4.20;;
2177;SDS011;1095;50.992;6.798;2023-08-06T20:37:27;13.10;;;3.80;;
2177;SDS011;1095;50.992;6.798;2023-08-06T20:43:58;10.07;;;4.07;;
2177;SDS011;1095;50.992;6.798;2023-08-06T20:46:25;11.60;;;4.15;;
2177;SDS011;1095;50.992;6.798;2023-08-06T20:48:53;14.55;;;4.95;;
2177;SDS011;1095;50.992;6.798;2023-08-06T20:51:20;13.07;;;3.75;;
2177;SDS011;1095;50.992;6.798;2023-08-06T20:53:47;7.93;;;3.88;;
2177;SDS011;1095;50.992;6.798;2023-08-06T20:56:13;11.10;;;4.03;;
2177;SDS011;1095;50.992;6.798;2023-08-06T20:58:41;8.45;;;3.47;;
2177;SDS011;1095;50.992;6.798;2023-08-06T21:01:08;15.43;;;4.13;;
2177;SDS011;1095;50.992;6.798;2023-08-06T21:03:35;13.70;;;3.78;;
2177;SDS011;1095;50.992;6.798;2023-08-06T21:06:03;9.02;;;3.67;;
2177;SDS011;1095;50.992;6.798;2023-08-06T21:08:31;9.52;;;4.10;;
2177;SDS011;1095;50.992;6.798;2023-08-06T21:10:59;12.18;;;4.90;;
2177;SDS011;1095;50.992;6.798;2023-08-06T21:13:26;12.40;;;4.85;;
2177;SDS011;1095;50.992;6.798;2023-08-06T21:15:57;13.18;;;4.72;;
2177;SDS011;1095;50.992;6.798;2023-08-06T21:18:26;11.40;;;4.55;;
2177;SDS011;1095;50.992;6.798;2023-08-06T21:20:55;14.52;;;4.55;;
2177;SDS011;1095;50.992;6.798;2023-08-06T21:23:23;13.43;;;4.72;;
2177;SDS011;1095;50.992;6.798;2023-08-06T21:25:54;15.20;;;4.65;;
2177;SDS011;1095;50.992;6.798;2023-08-06T21:28:22;10.35;;;4.25;;
2177;SDS011;1095;50.992;6.798;2023-08-06T21:30:53;12.50;;;4.70;;
2177;SDS011;1095;50.992;6.798;2023-08-06T21:33:22;8.95;;;4.10;;
2177;SDS011;1095;50.992;6.798;2023-08-06T21:35:49;15.10;;;4.90;;
2177;SDS011;1095;50.992;6.798;2023-08-06T21:38:16;12.20;;;4.72;;
2177;SDS011;1095;50.992;6.798;2023-08-06T21:40:46;11.05;;;4.20;;
2177;SDS011;1095;50.992;6.798;2023-08-06T21:43:18;11.70;;;4.25;;
2177;SDS011;1095;50.992;6.798;2023-08-06T21:45:45;9.15;;;4.80;;
2177;SDS011;1095;50.992;6.798;2023-08-06T21:48:11;8.82;;;4.13;;
2177;SDS011;1095;50.992;6.798;2023-08-06T21:50:38;10.02;;;4.13;;
2177;SDS011;1095;50.992;6.798;2023-08-06T21:53:04;9.32;;;4.68;;
2177;SDS011;1095;50.992;6.798;2023-08-06T21:55:31;17.80;;;4.72;;
2177;SDS011;1095;50.992;6.798;2023-08-06T21:57:59;8.43;;;3.42;;
2177;SDS011;1095;50.992;6.798;2023-08-06T22:00:26;7.55;;;3.95;;
2177;SDS011;1095;50.992;6.798;2023-08-06T22:02:52;9.68;;;3.78;;
2177;SDS011;1095;50.992;6.798;2023-08-06T22:05:19;10.82;;;4.20;;
2177;SDS011;1095;50.992;6.798;2023-08-06T22:07:46;12.38;;;4.47;;
2177;SDS011;1095;50.992;6.798;2023-08-06T22:10:12;10.65;;;4.40;;
2177;SDS011;1095;50.992;6.798;2023-08-06T22:12:39;11.05;;;4.05;;
2177;SDS011;1095;50.992;6.798;2023-08-06T22:15:07;11.35;;;3.90;;
2177;SDS011;1095;50.992;6.798;2023-08-06T22:17:34;9.55;;;3.85;;
2177;SDS011;1095;50.992;6.798;2023-08-06T22:20:01;15.75;;;4.13;;
2177;SDS011;1095;50.992;6.798;2023-08-06T22:22:28;12.45;;;4.80;;
2177;SDS011;1095;50.992;6.798;2023-08-06T22:24:55;13.93;;;4.63;;
2177;SDS011;1095;50.992;6.798;2023-08-06T22:27:21;11.32;;;4.50;;
2177;SDS011;1095;50.992;6.798;2023-08-06T22:29:48;16.30;;;5.15;;
2177;SDS011;1095;50.992;6.798;2023-08-06T22:32:16;13.60;;;5.28;;
2177;SDS011;1095;50.992;6.798;2023-08-06T22:34:43;16.05;;;5.07;;
2177;SDS011;1095;50.992;6.798;2023-08-06T22:37:09;16.02;;;5.70;;
2177;SDS011;1095;50.992;6.798;2023-08-06T22:39:36;12.95;;;4.93;;
2177;SDS011;1095;50.992;6.798;2023-08-06T22:42:03;18.20;;;5.53;;
2177;SDS011;1095;50.992;6.798;2023-08-06T22:44:30;16.80;;;6.07;;
2177;SDS011;1095;50.992;6.798;2023-08-06T22:46:56;15.30;;;5.20;;
2177;SDS011;1095;50.992;6.798;2023-08-06T22:49:24;14.68;;;4.75;;
2177;SDS011;1095;50.992;6.798;2023-08-06T22:51:51;16.25;;;5.10;;
2177;SDS011;1095;50.992;6.798;2023-08-06T22:54:17;8.73;;;4.28;;
2177;SDS011;1095;50.992;6.798;2023-08-06T22:56:44;13.10;;;4.63;;
2177;SDS011;1095;50.992;6.798;2023-08-06T22:59:11;15.18;;;4.82;;
2177;SDS011;1095;50.992;6.798;2023-08-06T23:01:37;11.40;;;4.90;;
2177;SDS011;1095;50.992;6.798;2023-08-06T23:04:04;9.80;;;4.18;;
2177;SDS011;1095;50.992;6.798;2023-08-06T23:06:32;23.13;;;4.55;;
2177;SDS011;1095;50.992;6.798;2023-08-06T23:08:58;16.13;;;5.35;;
2177;SDS011;1095;50.992;6.798;2023-08-06T23:11:25;16.60;;;4.97;;
2177;SDS011;1095;50.992;6.798;2023-08-06T23:13:52;18.85;;;5.20;;
2177;SDS011;1095;50.992;6.798;2023-08-06T23:16:19;18.38;;;5.15;;
2177;SDS011;1095;50.992;6.798;2023-08-06T23:18:46;17.05;;;5.40;;
2177;SDS011;1095;50.992;6.798;2023-08-06T23:21:12;14.05;;;4.78;;
2177;SDS011;1095;50.992;6.798;2023-08-06T23:23:41;13.00;;;4.90;;
2177;SDS011;1095;50.992;6.798;2023-08-06T23:26:07;14.40;;;4.70;;
2177;SDS011;1095;50.992;6.798;2023-08-06T23:28:41;18.17;;;5.97;;
2177;SDS011;1095;50.992;6.798;2023-08-06T23:31:09;12.98;;;4.90;;
2177;SDS011;1095;50.992;6.798;2023-08-06T23:33:36;14.80;;;5.13;;
2177;SDS011;1095;50.992;6.798;2023-08-06T23:36:03;16.65;;;4.45;;
2177;SDS011;1095;50.992;6.798;2023-08-06T23:38:33;12.40;;;4.65;;
2177;SDS011;1095;50.992;6.798;2023-08-06T23:41:03;15.20;;;4.78;;
2177;SDS011;1095;50.992;6.798;2023-08-06T23:43:30;13.80;;;4.63;;
2177;SDS011;1095;50.992;6.798;2023-08-06T23:45:57;16.55;;;4.53;;
2177;SDS011;1095;50.992;6.798;2023-08-06T23:48:24;15.90;;;5.97;;
2177;SDS011;1095;50.992;6.798;2023-08-06T23:50:51;20.73;;;6.07;;
2177;SDS011;1095;50.992;6.798;2023-08-06T23:53:17;17.40;;;5.82;;
2177;SDS011;1095;50.992;6.798;2023-08-06T23:55:44;20.85;;;5.50;;
2177;SDS011;1095;50.992;6.798;2023-08-06T23:58:12;19.05;;;5.65;;
